Gennaro Ievoli — 9HA3007 — position and weather

sailwx.info

Track history (hours):
 
Tides and Currents Weather Stations Pressure Air Temp Water Temp Dewpoint Dewpoint Depression Visibility Wind Speed Wind Dir Waves Ship Positions

Gennaro Ievoli

Last reported at 2016-Jun-28 11:04 UTC. Time now 2016-Jul-02 00:27 UTC.
Position N 42°48' W 129°40'.

Length 171 m; draft 6.6 m.

Type: Tanker. MMSI: 229031000.

Date/timePositionNaut miles runAvg speedWind from/ knotsBaromVisibWave heightAir tempDewpointWater temp
2016-Jun-28 11:04N 42°48' W 129°40'105 8.3
2016-Jun-27 22:29N 41°06' W 129°13'8 8.9
2016-Jun-27 21:33N 40°57' W 129°12'10 8.8
2016-Jun-27 20:24N 40°47' W 129°10'78 9.6
2016-Jun-27 12:18N 39°32' W 128°47'911.4
2016-Jun-27 11:33N 39°23' W 128°45'1211.7
2016-Jun-27 10:32N 39°12' W 128°42'1211.7
2016-Jun-27 09:28N 38°59' W 128°38'1211.5
2016-Jun-27 08:27N 38°48' W 128°35'1211.4
2016-Jun-27 07:22N 38°36' W 128°33'1011.5
2016-Jun-27 06:28N 38°26' W 128°30'1011.4
2016-Jun-27 05:33N 38°15' W 128°28'1111.2
2016-Jun-27 04:33N 38°05' W 128°23'1211.5
2016-Jun-27 03:33N 37°54' W 128°17'1111.2
2016-Jun-27 02:32N 37°44' W 128°11'1211.3
2016-Jun-27 01:27N 37°33' W 128°05'18 8.1
2016-Jun-26 23:14N 37°23' W 127°46'1014.1
2016-Jun-26 22:33N 37°28' W 127°35'1513.9
2016-Jun-26 21:26N 37°36' W 127°18'1112.7
2016-Jun-26 20:33N 37°42' W 127°06'1513.7
2016-Jun-26 19:28N 37°50' W 126°50'1313.6
2016-Jun-26 18:32N 37°56' W 126°36'1413.8
2016-Jun-26 17:33N 38°05' W 126°23'1413.9
2016-Jun-26 16:33N 38°15' W 126°10'1413.8
2016-Jun-26 15:33N 38°24' W 125°58'1413.7
2016-Jun-26 14:33N 38°34' W 125°46'1111.2
2016-Jun-26 13:33N 38°41' W 125°34'1110.9
2016-Jun-26 12:33N 38°36' W 125°22'1111.0
2016-Jun-26 11:31N 38°31' W 125°09'1111.2
2016-Jun-26 10:33N 38°26' W 124°57'1111.1
2016-Jun-26 09:33N 38°20' W 124°44'1111.2
2016-Jun-26 08:33N 38°16' W 124°31'1111.3
2016-Jun-26 07:33N 38°15' W 124°17'1111.2
2016-Jun-26 06:33N 38°14' W 124°03'1111.4
2016-Jun-26 05:33N 38°14' W 123°48'1111.3
2016-Jun-26 04:33N 38°13' W 123°34'1010.1
2016-Jun-26 03:33N 38°10' W 123°21'1211.6
2016-Jun-26 02:33N 38°01' W 123°12'1212.3
2016-Jun-26 01:33N 37°54' W 122°59'1312.6
2016-Jun-26 00:33N 37°48' W 122°45'10 9.9
2016-Jun-25 23:33N 37°48' W 122°33'9 9.3
2016-Jun-25 22:33N 37°47' W 122°21'1 0.5
2016-Jun-25 21:28N 37°46' W 122°21'0 0.1
2016-Jun-25 20:32N 37°46' W 122°21'0 0.0
2016-Jun-25 19:28N 37°46' W 122°21'0 0.0
2016-Jun-25 18:28N 37°46' W 122°21'0 0.2
2016-Jun-25 17:33N 37°46' W 122°21'0 0.0
2016-Jun-25 16:33N 37°46' W 122°21'0 0.0
2016-Jun-25 15:33N 37°46' W 122°21'0 0.0
2016-Jun-25 14:32N 37°46' W 122°21'0 0.0
2016-Jun-25 13:32N 37°46' W 122°21'0 0.0
2016-Jun-25 12:31N 37°46' W 122°21'0 0.0
2016-Jun-25 11:31N 37°46' W 122°21'0 0.1
2016-Jun-25 10:33N 37°46' W 122°21'0 0.1
2016-Jun-25 09:30N 37°46' W 122°21'0 0.0
2016-Jun-25 08:33N 37°46' W 122°21'0 0.0
2016-Jun-25 07:32N 37°46' W 122°21'0 0.1
2016-Jun-25 06:29N 37°46' W 122°21'0 0.1
2016-Jun-25 05:31N 37°46' W 122°21'0 0.1
2016-Jun-25 04:31N 37°46' W 122°21'0 0.1
2016-Jun-25 03:33N 37°46' W 122°21'0 0.0
2016-Jun-25 02:33N 37°46' W 122°21'0 0.0
2016-Jun-25 01:33N 37°46' W 122°21'0 0.2
2016-Jun-25 00:32N 37°46' W 122°21'0 0.1
2016-Jun-24 23:32N 37°46' W 122°21'0 0.0
2016-Jun-24 22:31N 37°46' W 122°21'0 0.0
2016-Jun-24 21:31N 37°46' W 122°21'0 0.0
2016-Jun-24 20:33N 37°46' W 122°21'0 0.0
2016-Jun-24 19:33N 37°46' W 122°21'0 0.0
2016-Jun-24 18:32N 37°46' W 122°21'0 0.2
2016-Jun-24 17:29N 37°46' W 122°21'0 0.0
2016-Jun-24 16:32N 37°46' W 122°21'0 0.0
2016-Jun-24 15:31N 37°46' W 122°21'0 0.0
2016-Jun-24 14:31N 37°46' W 122°21'0 0.0
2016-Jun-24 13:33N 37°46' W 122°21'0 0.0
2016-Jun-24 12:33N 37°46' W 122°21'0 0.1
2016-Jun-24 11:32N 37°46' W 122°21'0 0.1
2016-Jun-24 10:32N 37°46' W 122°21'0 0.2
2016-Jun-24 09:32N 37°46' W 122°21'0 0.0
2016-Jun-24 08:31N 37°46' W 122°21'0 0.0
2016-Jun-24 07:31N 37°46' W 122°21'9 0.4
2016-Jun-23 09:18N 37°55' W 122°22'8 4.3
2016-Jun-23 07:33N 38°02' W 122°21'2010.0
2016-Jun-23 05:33N 38°03' W 121°56'8 8.1
2016-Jun-23 04:33N 38°02' W 121°45'9 8.9
2016-Jun-23 03:29N 38°06' W 121°35'8 8.8
2016-Jun-23 02:33N 38°00' W 121°27'6 6.1
2016-Jun-23 01:34N 37°57' W 121°20'1 1.1
2016-Jun-23 00:33N 37°57' W 121°19'0 0.0
2016-Jun-22 23:33N 37°57' W 121°19'0 0.0
2016-Jun-22 22:33N 37°57' W 121°19'0 0.0
2016-Jun-22 21:31N 37°57' W 121°19'0 0.0
2016-Jun-22 20:32N 37°57' W 121°19'0 0.0
2016-Jun-22 19:32N 37°57' W 121°19'0 0.0
2016-Jun-22 18:31N 37°57' W 121°19'0 0.0
2016-Jun-22 17:31N 37°57' W 121°19'0 0.0
2016-Jun-22 16:33N 37°57' W 121°19'0 0.0
2016-Jun-22 15:33N 37°57' W 121°19'0 0.0
2016-Jun-22 14:33N 37°57' W 121°19'0 0.0
2016-Jun-22 13:34N 37°57' W 121°19'0 0.2
2016-Jun-22 12:32N 37°57' W 121°19'0 0.0
2016-Jun-22 11:28N 37°57' W 121°19'0 0.0
2016-Jun-22 10:22N 37°57' W 121°19'0 0.0
2016-Jun-22 09:33N 37°57' W 121°19'0 0.0
2016-Jun-22 08:33N 37°57' W 121°19'0 0.0
2016-Jun-22 07:32N 37°57' W 121°19'0 0.0
2016-Jun-22 06:32N 37°57' W 121°19'0 0.0
2016-Jun-22 05:32N 37°57' W 121°19'0 0.0
2016-Jun-22 04:31N 37°57' W 121°19'0 0.0
2016-Jun-22 03:31N 37°57' W 121°19'0 0.0
2016-Jun-22 02:33N 37°57' W 121°19'0 0.0
2016-Jun-22 01:33N 37°57' W 121°19'0 0.0
2016-Jun-22 00:32N 37°57' W 121°19'0 0.0
2016-Jun-21 23:32N 37°57' W 121°19'0 0.0
2016-Jun-21 22:32N 37°57' W 121°19'0 0.0
2016-Jun-21 21:31N 37°57' W 121°19'0 0.0
2016-Jun-21 20:31N 37°57' W 121°19'0 0.0
2016-Jun-21 19:33N 37°57' W 121°19'0 0.0
2016-Jun-21 18:33N 37°57' W 121°19'0 0.0
2016-Jun-21 17:32N 37°57' W 121°19'0 0.0
2016-Jun-21 16:32N 37°57' W 121°19'0 0.0
2016-Jun-21 15:31N 37°57' W 121°19'0 0.0
2016-Jun-21 14:31N 37°57' W 121°19'0 0.0
2016-Jun-21 13:33N 37°57' W 121°19'0 0.0
2016-Jun-21 12:33N 37°57' W 121°19'0 0.0
2016-Jun-21 11:33N 37°57' W 121°19'0 0.0
2016-Jun-21 10:29N 37°57' W 121°19'0 0.0
2016-Jun-21 09:32N 37°57' W 121°19'0 0.0
2016-Jun-21 08:31N 37°57' W 121°19'0 0.0
2016-Jun-21 07:28N 37°57' W 121°19'0 0.0
2016-Jun-21 06:31N 37°57' W 121°19'0 0.0
2016-Jun-21 04:33N 37°57' W 121°19'0 0.0
2016-Jun-21 03:32N 37°57' W 121°19'0 0.0
2016-Jun-21 02:34N 37°57' W 121°19'3 3.0
2016-Jun-21 01:34N 37°58' W 121°23'6 6.1
2016-Jun-21 00:34N 38°02' W 121°29'16 7.5
2016-Jun-20 22:27N 38°01' W 121°49'7 7.3
2016-Jun-20 21:34N 38°03' W 121°57'8 8.2
2016-Jun-20 20:33N 38°02' W 122°07'1010.2
2016-Jun-20 19:33N 38°03' W 122°20'1211.5
2016-Jun-20 18:33N 37°52' W 122°25'7 7.4
2016-Jun-20 17:33N 37°45' W 122°21'0 0.0
2016-Jun-20 16:30N 37°45' W 122°21'0 0.0
2016-Jun-20 15:33N 37°45' W 122°21'0 0.2
2016-Jun-20 14:32N 37°46' W 122°21'0 0.0
2016-Jun-20 13:32N 37°46' W 122°21'0 0.0
2016-Jun-20 12:31N 37°46' W 122°21'0 0.0
2016-Jun-20 11:31N 37°46' W 122°21'0 0.1
2016-Jun-20 10:34N 37°46' W 122°21'0 0.1
2016-Jun-20 09:33N 37°46' W 122°21'0 0.1
2016-Jun-20 08:33N 37°46' W 122°21'0 0.3
2016-Jun-20 07:32N 37°45' W 122°21'0 0.0
2016-Jun-20 06:32N 37°45' W 122°21'0 0.0
2016-Jun-20 05:31N 37°45' W 122°21'0 0.0
2016-Jun-20 04:31N 37°45' W 122°21'0 0.0
2016-Jun-20 03:30N 37°45' W 122°21'0 0.0
2016-Jun-20 02:33N 37°45' W 122°21'0 0.1
2016-Jun-20 01:30N 37°46' W 122°21'0 0.2
2016-Jun-20 00:29N 37°46' W 122°21'0 0.0
2016-Jun-19 23:32N 37°46' W 122°21'0 0.0
2016-Jun-19 22:31N 37°46' W 122°21'0 0.2
2016-Jun-19 21:31N 37°46' W 122°21'0 0.2
2016-Jun-19 20:33N 37°45' W 122°21'0 0.0
2016-Jun-19 19:33N 37°45' W 122°21'0 0.0
2016-Jun-19 18:33N 37°45' W 122°21'0 0.1
2016-Jun-19 17:32N 37°45' W 122°21'0 0.0
2016-Jun-19 16:32N 37°45' W 122°21'0 0.0
2016-Jun-19 15:31N 37°45' W 122°21'0 0.0
2016-Jun-19 14:31N 37°45' W 122°21'0 0.2
2016-Jun-19 13:30N 37°46' W 122°21'0 0.1
2016-Jun-19 12:33N 37°46' W 122°21'0 0.0
2016-Jun-19 11:32N 37°46' W 122°21'0 0.0
2016-Jun-19 10:32N 37°46' W 122°21'0 0.0
2016-Jun-19 09:32N 37°46' W 122°21'0 0.1
2016-Jun-19 08:31N 37°46' W 122°21'0 0.0
2016-Jun-19 07:31N 37°46' W 122°21'0 0.1
2016-Jun-19 06:33N 37°45' W 122°21'0 0.0
2016-Jun-19 05:33N 37°45' W 122°21'5 4.9
2016-Jun-19 04:33N 37°49' W 122°25'1312.8
2016-Jun-19 03:34N 37°46' W 122°41'1211.8
2016-Jun-19 02:33N 37°50' W 122°55'1313.3
2016-Jun-19 01:34N 37°57' W 123°09'1313.4
2016-Jun-19 00:34N 38°07' W 123°21'1312.5
2016-Jun-18 23:34N 38°09' W 123°36'1312.6
2016-Jun-18 22:34N 38°08' W 123°52'1312.7
2016-Jun-18 21:33N 38°08' W 124°09'1812.6
2016-Jun-18 20:09N 38°09' W 124°31'912.4
2016-Jun-18 19:27N 38°08' W 124°42'  
Track history (hours):
 
Tides and Currents Weather Stations Pressure Air Temp Water Temp Dewpoint Dewpoint Depression Visibility Wind Speed Wind Dir Waves Ship Positions

Gennaro Ievoli

Last reported at 2016-Jun-28 11:04 UTC. Time now 2016-Jul-02 00:27 UTC.
Position N 42°48' W 129°40'.

Length 171 m; draft 6.6 m.

Type: Tanker. MMSI: 229031000.

Date/timePositionNaut miles runAvg speedWind from/ knotsBaromVisibWave heightAir tempDewpointWater temp
2016-Jun-28 11:04N 42°48' W 129°40'105 8.3
2016-Jun-27 22:29N 41°06' W 129°13'8 8.9
2016-Jun-27 21:33N 40°57' W 129°12'10 8.8
2016-Jun-27 20:24N 40°47' W 129°10'78 9.6
2016-Jun-27 12:18N 39°32' W 128°47'911.4
2016-Jun-27 11:33N 39°23' W 128°45'1211.7
2016-Jun-27 10:32N 39°12' W 128°42'1211.7
2016-Jun-27 09:28N 38°59' W 128°38'1211.5
2016-Jun-27 08:27N 38°48' W 128°35'1211.4
2016-Jun-27 07:22N 38°36' W 128°33'1011.5
2016-Jun-27 06:28N 38°26' W 128°30'1011.4
2016-Jun-27 05:33N 38°15' W 128°28'1111.2
2016-Jun-27 04:33N 38°05' W 128°23'1211.5
2016-Jun-27 03:33N 37°54' W 128°17'1111.2
2016-Jun-27 02:32N 37°44' W 128°11'1211.3
2016-Jun-27 01:27N 37°33' W 128°05'18 8.1
2016-Jun-26 23:14N 37°23' W 127°46'1014.1
2016-Jun-26 22:33N 37°28' W 127°35'1513.9
2016-Jun-26 21:26N 37°36' W 127°18'1112.7
2016-Jun-26 20:33N 37°42' W 127°06'1513.7
2016-Jun-26 19:28N 37°50' W 126°50'1313.6
2016-Jun-26 18:32N 37°56' W 126°36'1413.8
2016-Jun-26 17:33N 38°05' W 126°23'1413.9
2016-Jun-26 16:33N 38°15' W 126°10'1413.8
2016-Jun-26 15:33N 38°24' W 125°58'1413.7
2016-Jun-26 14:33N 38°34' W 125°46'1111.2
2016-Jun-26 13:33N 38°41' W 125°34'1110.9
2016-Jun-26 12:33N 38°36' W 125°22'1111.0
2016-Jun-26 11:31N 38°31' W 125°09'1111.2
2016-Jun-26 10:33N 38°26' W 124°57'1111.1
2016-Jun-26 09:33N 38°20' W 124°44'1111.2
2016-Jun-26 08:33N 38°16' W 124°31'1111.3
2016-Jun-26 07:33N 38°15' W 124°17'1111.2
2016-Jun-26 06:33N 38°14' W 124°03'1111.4
2016-Jun-26 05:33N 38°14' W 123°48'1111.3
2016-Jun-26 04:33N 38°13' W 123°34'1010.1
2016-Jun-26 03:33N 38°10' W 123°21'1211.6
2016-Jun-26 02:33N 38°01' W 123°12'1212.3
2016-Jun-26 01:33N 37°54' W 122°59'1312.6
2016-Jun-26 00:33N 37°48' W 122°45'10 9.9
2016-Jun-25 23:33N 37°48' W 122°33'9 9.3
2016-Jun-25 22:33N 37°47' W 122°21'1 0.5
2016-Jun-25 21:28N 37°46' W 122°21'0 0.1
2016-Jun-25 20:32N 37°46' W 122°21'0 0.0
2016-Jun-25 19:28N 37°46' W 122°21'0 0.0
2016-Jun-25 18:28N 37°46' W 122°21'0 0.2
2016-Jun-25 17:33N 37°46' W 122°21'0 0.0
2016-Jun-25 16:33N 37°46' W 122°21'0 0.0
2016-Jun-25 15:33N 37°46' W 122°21'0 0.0
2016-Jun-25 14:32N 37°46' W 122°21'0 0.0
2016-Jun-25 13:32N 37°46' W 122°21'0 0.0
2016-Jun-25 12:31N 37°46' W 122°21'0 0.0
2016-Jun-25 11:31N 37°46' W 122°21'0 0.1
2016-Jun-25 10:33N 37°46' W 122°21'0 0.1
2016-Jun-25 09:30N 37°46' W 122°21'0 0.0
2016-Jun-25 08:33N 37°46' W 122°21'0 0.0
2016-Jun-25 07:32N 37°46' W 122°21'0 0.1
2016-Jun-25 06:29N 37°46' W 122°21'0 0.1
2016-Jun-25 05:31N 37°46' W 122°21'0 0.1
2016-Jun-25 04:31N 37°46' W 122°21'0 0.1
2016-Jun-25 03:33N 37°46' W 122°21'0 0.0
2016-Jun-25 02:33N 37°46' W 122°21'0 0.0
2016-Jun-25 01:33N 37°46' W 122°21'0 0.2
2016-Jun-25 00:32N 37°46' W 122°21'0 0.1
2016-Jun-24 23:32N 37°46' W 122°21'0 0.0
2016-Jun-24 22:31N 37°46' W 122°21'0 0.0
2016-Jun-24 21:31N 37°46' W 122°21'0 0.0
2016-Jun-24 20:33N 37°46' W 122°21'0 0.0
2016-Jun-24 19:33N 37°46' W 122°21'0 0.0
2016-Jun-24 18:32N 37°46' W 122°21'0 0.2
2016-Jun-24 17:29N 37°46' W 122°21'0 0.0
2016-Jun-24 16:32N 37°46' W 122°21'0 0.0
2016-Jun-24 15:31N 37°46' W 122°21'0 0.0
2016-Jun-24 14:31N 37°46' W 122°21'0 0.0
2016-Jun-24 13:33N 37°46' W 122°21'0 0.0
2016-Jun-24 12:33N 37°46' W 122°21'0 0.1
2016-Jun-24 11:32N 37°46' W 122°21'0 0.1
2016-Jun-24 10:32N 37°46' W 122°21'0 0.2
2016-Jun-24 09:32N 37°46' W 122°21'0 0.0
2016-Jun-24 08:31N 37°46' W 122°21'0 0.0
2016-Jun-24 07:31N 37°46' W 122°21'9 0.4
2016-Jun-23 09:18N 37°55' W 122°22'8 4.3
2016-Jun-23 07:33N 38°02' W 122°21'2010.0
2016-Jun-23 05:33N 38°03' W 121°56'8 8.1
2016-Jun-23 04:33N 38°02' W 121°45'9 8.9
2016-Jun-23 03:29N 38°06' W 121°35'8 8.8
2016-Jun-23 02:33N 38°00' W 121°27'6 6.1
2016-Jun-23 01:34N 37°57' W 121°20'1 1.1
2016-Jun-23 00:33N 37°57' W 121°19'0 0.0
2016-Jun-22 23:33N 37°57' W 121°19'0 0.0
2016-Jun-22 22:33N 37°57' W 121°19'0 0.0
2016-Jun-22 21:31N 37°57' W 121°19'0 0.0
2016-Jun-22 20:32N 37°57' W 121°19'0 0.0
2016-Jun-22 19:32N 37°57' W 121°19'0 0.0
2016-Jun-22 18:31N 37°57' W 121°19'0 0.0
2016-Jun-22 17:31N 37°57' W 121°19'0 0.0
2016-Jun-22 16:33N 37°57' W 121°19'0 0.0
2016-Jun-22 15:33N 37°57' W 121°19'0 0.0
2016-Jun-22 14:33N 37°57' W 121°19'0 0.0
2016-Jun-22 13:34N 37°57' W 121°19'0 0.2
2016-Jun-22 12:32N 37°57' W 121°19'0 0.0
2016-Jun-22 11:28N 37°57' W 121°19'0 0.0
2016-Jun-22 10:22N 37°57' W 121°19'0 0.0
2016-Jun-22 09:33N 37°57' W 121°19'0 0.0
2016-Jun-22 08:33N 37°57' W 121°19'0 0.0
2016-Jun-22 07:32N 37°57' W 121°19'0 0.0
2016-Jun-22 06:32N 37°57' W 121°19'0 0.0
2016-Jun-22 05:32N 37°57' W 121°19'0 0.0
2016-Jun-22 04:31N 37°57' W 121°19'0 0.0
2016-Jun-22 03:31N 37°57' W 121°19'0 0.0
2016-Jun-22 02:33N 37°57' W 121°19'0 0.0
2016-Jun-22 01:33N 37°57' W 121°19'0 0.0
2016-Jun-22 00:32N 37°57' W 121°19'0 0.0
2016-Jun-21 23:32N 37°57' W 121°19'0 0.0
2016-Jun-21 22:32N 37°57' W 121°19'0 0.0
2016-Jun-21 21:31N 37°57' W 121°19'0 0.0
2016-Jun-21 20:31N 37°57' W 121°19'0 0.0
2016-Jun-21 19:33N 37°57' W 121°19'0 0.0
2016-Jun-21 18:33N 37°57' W 121°19'0 0.0
2016-Jun-21 17:32N 37°57' W 121°19'0 0.0
2016-Jun-21 16:32N 37°57' W 121°19'0 0.0
2016-Jun-21 15:31N 37°57' W 121°19'0 0.0
2016-Jun-21 14:31N 37°57' W 121°19'0 0.0
2016-Jun-21 13:33N 37°57' W 121°19'0 0.0
2016-Jun-21 12:33N 37°57' W 121°19'0 0.0
2016-Jun-21 11:33N 37°57' W 121°19'0 0.0
2016-Jun-21 10:29N 37°57' W 121°19'0 0.0
2016-Jun-21 09:32N 37°57' W 121°19'0 0.0
2016-Jun-21 08:31N 37°57' W 121°19'0 0.0
2016-Jun-21 07:28N 37°57' W 121°19'0 0.0
2016-Jun-21 06:31N 37°57' W 121°19'0 0.0
2016-Jun-21 04:33N 37°57' W 121°19'0 0.0
2016-Jun-21 03:32N 37°57' W 121°19'0 0.0
2016-Jun-21 02:34N 37°57' W 121°19'3 3.0
2016-Jun-21 01:34N 37°58' W 121°23'6 6.1
2016-Jun-21 00:34N 38°02' W 121°29'16 7.5
2016-Jun-20 22:27N 38°01' W 121°49'7 7.3
2016-Jun-20 21:34N 38°03' W 121°57'8 8.2
2016-Jun-20 20:33N 38°02' W 122°07'1010.2
2016-Jun-20 19:33N 38°03' W 122°20'1211.5
2016-Jun-20 18:33N 37°52' W 122°25'7 7.4
2016-Jun-20 17:33N 37°45' W 122°21'0 0.0
2016-Jun-20 16:30N 37°45' W 122°21'0 0.0
2016-Jun-20 15:33N 37°45' W 122°21'0 0.2
2016-Jun-20 14:32N 37°46' W 122°21'0 0.0
2016-Jun-20 13:32N 37°46' W 122°21'0 0.0
2016-Jun-20 12:31N 37°46' W 122°21'0 0.0
2016-Jun-20 11:31N 37°46' W 122°21'0 0.1
2016-Jun-20 10:34N 37°46' W 122°21'0 0.1
2016-Jun-20 09:33N 37°46' W 122°21'0 0.1
2016-Jun-20 08:33N 37°46' W 122°21'0 0.3
2016-Jun-20 07:32N 37°45' W 122°21'0 0.0
2016-Jun-20 06:32N 37°45' W 122°21'0 0.0
2016-Jun-20 05:31N 37°45' W 122°21'0 0.0
2016-Jun-20 04:31N 37°45' W 122°21'0 0.0
2016-Jun-20 03:30N 37°45' W 122°21'0 0.0
2016-Jun-20 02:33N 37°45' W 122°21'0 0.1
2016-Jun-20 01:30N 37°46' W 122°21'0 0.2
2016-Jun-20 00:29N 37°46' W 122°21'0 0.0
2016-Jun-19 23:32N 37°46' W 122°21'0 0.0
2016-Jun-19 22:31N 37°46' W 122°21'0 0.2
2016-Jun-19 21:31N 37°46' W 122°21'0 0.2
2016-Jun-19 20:33N 37°45' W 122°21'0 0.0
2016-Jun-19 19:33N 37°45' W 122°21'0 0.0
2016-Jun-19 18:33N 37°45' W 122°21'0 0.1
2016-Jun-19 17:32N 37°45' W 122°21'0 0.0
2016-Jun-19 16:32N 37°45' W 122°21'0 0.0
2016-Jun-19 15:31N 37°45' W 122°21'0 0.0
2016-Jun-19 14:31N 37°45' W 122°21'0 0.2
2016-Jun-19 13:30N 37°46' W 122°21'0 0.1
2016-Jun-19 12:33N 37°46' W 122°21'0 0.0
2016-Jun-19 11:32N 37°46' W 122°21'0 0.0
2016-Jun-19 10:32N 37°46' W 122°21'0 0.0
2016-Jun-19 09:32N 37°46' W 122°21'0 0.1
2016-Jun-19 08:31N 37°46' W 122°21'0 0.0
2016-Jun-19 07:31N 37°46' W 122°21'0 0.1
2016-Jun-19 06:33N 37°45' W 122°21'0 0.0
2016-Jun-19 05:33N 37°45' W 122°21'5 4.9
2016-Jun-19 04:33N 37°49' W 122°25'1312.8
2016-Jun-19 03:34N 37°46' W 122°41'1211.8
2016-Jun-19 02:33N 37°50' W 122°55'1313.3
2016-Jun-19 01:34N 37°57' W 123°09'1313.4
2016-Jun-19 00:34N 38°07' W 123°21'1312.5
2016-Jun-18 23:34N 38°09' W 123°36'1312.6
2016-Jun-18 22:34N 38°08' W 123°52'1312.7
2016-Jun-18 21:33N 38°08' W 124°09'1812.6
2016-Jun-18 20:09N 38°09' W 124°31'912.4
2016-Jun-18 19:27N 38°08' W 124°42'  

Dump ship's entire track history